Aviation Digital Data Service (ADDS)

Output produced by METARs form (0508 UTC 28 September 2016)
found at http://aviationweather.gov/adds/metars/
 
KINT 272333Z 2800/2824 22005KT P6SM VCSH SCT025 BKN035 
     FM280500 22003KT P6SM OVC035 
     FM280800 21003KT 4SM BR OVC004 
     FM281500 17004KT P6SM BKN015 
     FM281800 16005KT P6SM VCTS OVC050CB